Time;durP1;ratioP1;P1;durP2;ratioP2;P2;SDS_P1;SDS_P2;PMS_P1;PMS_P2;Temp;Humidity;BMP_temperature;BMP_pressure;BME280_temperature;BME280_humidity;BME280_pressure;Samples;Min_cycle;Max_cycle;Signal;HPM_P1;HPM_P2
2022/09/14 00:01:15;;;;;;;7.75;2.40;;;14.80;99.90;;;;;;5039030;28;20123;-66
2022/09/14 00:03:40;;;;;;;7.30;2.28;;;14.80;99.90;;;;;;5040445;28;20044;-65
2022/09/14 00:06:08;;;;;;;8.20;2.50;;;14.80;99.90;;;;;;5065806;28;21869;-67
2022/09/14 00:08:34;;;;;;;6.55;2.38;;;14.80;99.90;;;;;;5065258;28;20047;-66
2022/09/14 00:11:12;;;;;;;7.60;2.38;;;14.90;99.90;;;;;;5041632;28;20078;-65
2022/09/14 00:13:41;;;;;;;7.90;2.65;;;14.90;99.90;;;;;;5045318;28;20127;-66
2022/09/14 00:16:10;;;;;;;;;;;14.90;99.90;;;;;;5064225;28;20551;-64
2022/09/14 00:18:36;;;;;;;10.48;2.40;;;14.90;99.90;;;;;;5064699;28;19920;-66
2022/09/14 00:21:05;;;;;;;4.45;2.03;;;14.90;99.90;;;;;;5058873;28;20099;-66
2022/09/14 00:23:30;;;;;;;8.68;2.63;;;14.90;99.90;;;;;;5048462;28;20101;-64
2022/09/14 00:26:06;;;;;;;8.95;2.80;;;14.90;99.90;;;;;;5066973;28;20044;-66
2022/09/14 00:28:40;;;;;;;13.00;2.83;;;14.90;99.90;;;;;;5026346;28;20044;-64
2022/09/14 00:31:06;;;;;;;7.80;2.72;;;14.80;99.90;;;;;;5061712;28;20441;-65
2022/09/14 00:33:33;;;;;;;11.60;2.92;;;14.80;99.90;;;;;;5061005;28;20166;-65
2022/09/14 00:36:20;;;;;;;10.13;2.47;;;14.80;99.90;;;;;;5066530;28;20120;-64
2022/09/14 00:38:47;;;;;;;7.65;2.65;;;14.70;99.90;;;;;;5062240;28;20449;-65
2022/09/14 00:41:17;;;;;;;6.88;2.20;;;14.70;99.90;;;;;;5049620;28;20067;-64
2022/09/14 00:44:04;;;;;;;11.32;2.38;;;14.70;99.90;;;;;;5043522;28;20045;-65
2022/09/14 00:46:37;;;;;;;12.02;2.67;;;14.70;99.90;;;;;;5025235;28;20503;-65
2022/09/14 00:49:08;;;;;;;7.80;2.17;;;14.80;99.90;;;;;;5041589;28;20586;-67
2022/09/14 00:51:42;;;;;;;9.80;2.40;;;14.70;99.90;;;;;;5060728;28;20449;-65
2022/09/14 00:54:08;;;;;;;9.35;2.53;;;14.60;99.90;;;;;;5044542;28;20040;-66
2022/09/14 00:56:34;;;;;;;7.55;2.30;;;14.60;99.90;;;;;;5065883;28;20399;-66
2022/09/14 00:59:10;;;;;;;10.18;2.28;;;14.60;99.90;;;;;;5064897;28;20045;-64
2022/09/14 01:01:36;;;;;;;7.10;2.30;;;14.70;99.90;;;;;;5044339;28;20040;-65
2022/09/14 01:04:05;;;;;;;11.13;2.90;;;14.60;99.90;;;;;;5068793;28;20037;-66
2022/09/14 01:06:37;;;;;;;6.50;2.17;;;14.60;99.90;;;;;;5045128;28;20086;-65
2022/09/14 01:09:34;;;;;;;8.60;2.40;;;14.60;99.90;;;;;;5064488;28;20388;-66
2022/09/14 01:12:19;;;;;;;15.32;4.15;;;14.50;99.90;;;;;;5060069;28;20039;-65
2022/09/14 01:14:59;;;;;;;15.50;3.20;;;14.50;99.90;;;;;;5070780;28;20127;-66
2022/09/14 01:17:59;;;;;;;6.43;2.50;;;14.50;99.90;;;;;;5049595;28;20510;-65
2022/09/14 01:20:48;;;;;;;10.52;2.55;;;14.50;99.90;;;;;;5071200;28;20564;-65
2022/09/14 01:23:34;;;;;;;9.30;2.92;;;14.40;99.90;;;;;;5066909;28;20052;-66
2022/09/14 01:26:18;;;;;;;7.25;2.30;;;14.50;99.90;;;;;;5049822;28;20040;-66
2022/09/14 01:28:55;;;;;;;12.48;2.33;;;14.50;99.90;;;;;;5068613;28;20086;-66
2022/09/14 01:31:34;;;;;;;7.65;2.35;;;14.50;99.90;;;;;;5064402;28;20036;-64
2022/09/14 01:34:10;;;;;;;12.93;2.42;;;14.50;99.90;;;;;;5063177;28;20057;-65
2022/09/14 01:36:38;;;;;;;9.65;2.67;;;14.50;99.90;;;;;;5061122;28;20037;-65
2022/09/14 01:39:05;;;;;;;6.32;2.22;;;14.50;99.90;;;;;;5067173;28;20127;-65
2022/09/14 01:41:33;;;;;;;5.07;1.75;;;14.60;99.90;;;;;;5070596;28;20123;-66
2022/09/14 01:44:14;;;;;;;12.25;2.25;;;14.60;99.90;;;;;;5065709;28;20074;-65
2022/09/14 01:46:43;;;;;;;10.18;2.45;;;14.70;99.90;;;;;;5061594;28;20442;-65
2022/09/14 01:49:37;;;;;;;8.35;2.50;;;14.70;99.90;;;;;;5064982;28;20491;-65
2022/09/14 01:52:09;;;;;;;7.90;1.90;;;14.70;99.90;;;;;;5060489;28;20127;-65
2022/09/14 01:54:42;;;;;;;8.45;2.25;;;14.80;99.90;;;;;;5058670;28;20526;-66
2022/09/14 01:57:17;;;;;;;8.40;1.90;;;14.80;99.90;;;;;;5055029;28;20431;-66
2022/09/14 01:59:45;;;;;;;6.25;2.00;;;14.80;99.90;;;;;;5054389;28;20423;-66
2022/09/14 02:02:20;;;;;;;5.32;1.92;;;14.90;99.90;;;;;;5061431;28;20548;-65
2022/09/14 02:05:02;;;;;;;8.60;2.20;;;14.90;99.90;;;;;;5070545;28;20533;-66
2022/09/14 02:07:28;;;;;;;14.30;2.78;;;14.90;99.90;;;;;;5059666;28;20044;-65
2022/09/14 02:09:54;;;;;;;13.38;2.22;;;15.00;99.90;;;;;;5056440;28;20052;-66
2022/09/14 02:12:21;;;;;;;7.05;2.20;;;15.00;99.90;;;;;;5063407;28;20028;-65
2022/09/14 02:14:49;;;;;;;9.30;2.22;;;15.10;99.90;;;;;;5050653;28;20041;-64
2022/09/14 02:17:15;;;;;;;8.95;2.13;;;15.00;99.90;;;;;;5042666;28;20041;-64
2022/09/14 02:19:51;;;;;;;8.25;2.00;;;15.00;99.90;;;;;;5048232;28;20384;-65
2022/09/14 02:22:16;;;;;;;8.68;1.90;;;15.10;99.90;;;;;;5043127;28;20060;-65
2022/09/14 02:24:46;;;;;;;5.60;1.92;;;15.10;99.90;;;;;;5065985;28;20036;-65
2022/09/14 02:27:14;;;;;;;8.40;2.17;;;15.10;99.90;;;;;;5056180;28;20059;-65
2022/09/14 02:29:40;;;;;;;6.38;1.88;;;15.00;99.90;;;;;;5047895;28;20052;-66
2022/09/14 02:32:32;;;;;;;7.05;1.98;;;15.00;99.90;;;;;;5041036;28;20037;-65
2022/09/14 02:35:35;;;;;;;8.00;2.10;;;15.00;99.90;;;;;;5042590;28;20051;-65
2022/09/14 02:38:09;;;;;;;6.93;2.70;;;15.00;99.90;;;;;;5068852;28;20049;-65
2022/09/14 02:40:40;;;;;;;5.07;2.15;;;15.10;99.90;;;;;;5063168;28;20103;-65
2022/09/14 02:43:15;;;;;;;12.70;2.50;;;15.10;99.90;;;;;;5051924;28;20390;-65
2022/09/14 02:46:05;;;;;;;9.95;2.42;;;15.10;99.90;;;;;;5047098;28;20144;-65
2022/09/14 02:48:51;;;;;;;11.02;2.70;;;15.10;99.90;;;;;;5059792;28;20101;-65
2022/09/14 02:51:52;;;;;;;6.78;2.22;;;15.10;99.90;;;;;;5061998;28;20041;-67
2022/09/14 02:54:39;;;;;;;7.18;2.33;;;15.10;99.90;;;;;;5059085;28;20041;-64
2022/09/14 02:57:05;;;;;;;6.97;2.15;;;15.10;99.90;;;;;;5030979;28;20036;-65
2022/09/14 02:59:31;;;;;;;6.72;2.30;;;15.10;99.90;;;;;;5043009;28;21647;-65
2022/09/14 03:01:58;;;;;;;5.03;2.33;;;15.10;99.90;;;;;;5067797;28;20090;-66
2022/09/14 03:04:24;;;;;;;10.68;2.90;;;15.10;99.90;;;;;;5061200;28;20040;-66
2022/09/14 03:06:50;;;;;;;8.02;3.00;;;15.20;99.90;;;;;;5061087;28;20048;-65
2022/09/14 03:09:15;;;;;;;10.20;2.67;;;15.10;99.90;;;;;;5064921;28;20044;-67
2022/09/14 03:11:41;;;;;;;11.00;3.05;;;15.10;99.90;;;;;;5068801;28;20098;-65
2022/09/14 03:14:09;;;;;;;9.65;2.80;;;15.10;99.90;;;;;;5063411;28;20037;-66
2022/09/14 03:16:36;;;;;;;7.88;2.67;;;15.10;99.90;;;;;;5067812;28;20072;-65
2022/09/14 03:19:02;;;;;;;10.00;2.87;;;15.10;99.90;;;;;;5063747;28;20418;-67
2022/09/14 03:21:28;;;;;;;8.35;2.88;;;15.10;99.90;;;;;;5047740;28;20135;-64
2022/09/14 03:23:54;;;;;;;6.78;3.00;;;15.10;99.90;;;;;;5067482;28;20046;-64
2022/09/14 03:26:22;;;;;;;8.40;2.60;;;15.10;99.90;;;;;;5049956;28;20060;-66
2022/09/14 03:28:52;;;;;;;16.98;3.05;;;15.10;99.90;;;;;;5049423;28;20036;-65
2022/09/14 03:31:18;;;;;;;6.07;2.58;;;15.10;99.90;;;;;;5058976;28;20493;-66
2022/09/14 03:33:44;;;;;;;7.10;2.60;;;15.10;99.90;;;;;;5039270;28;20049;-66
2022/09/14 03:36:15;;;;;;;7.95;2.47;;;15.10;99.90;;;;;;5062551;28;20475;-66
2022/09/14 03:38:51;;;;;;;8.18;2.60;;;15.10;99.90;;;;;;5044764;28;20549;-65
2022/09/14 03:41:18;;;;;;;8.00;2.35;;;15.10;99.90;;;;;;5059847;28;20039;-66
2022/09/14 03:43:45;;;;;;;10.80;2.63;;;15.10;99.90;;;;;;5068074;28;20136;-65
2022/09/14 03:46:13;;;;;;;6.60;2.50;;;15.10;99.90;;;;;;5062854;28;20090;-67
2022/09/14 03:48:40;;;;;;;7.28;2.72;;;15.10;99.90;;;;;;5043132;28;20078;-65
2022/09/14 03:51:09;;;;;;;6.97;2.55;;;15.10;99.90;;;;;;5059752;28;20048;-64
2022/09/14 03:53:35;;;;;;;5.38;2.50;;;15.10;99.90;;;;;;5032646;28;20056;-65
2022/09/14 03:56:04;;;;;;;8.43;2.95;;;15.10;99.90;;;;;;5060941;28;20047;-66
2022/09/14 03:58:31;;;;;;;9.60;2.47;;;15.10;99.90;;;;;;5064989;28;20522;-66
2022/09/14 04:01:05;;;;;;;7.50;2.55;;;15.10;99.90;;;;;;5059620;28;20380;-64
2022/09/14 04:03:32;;;;;;;7.68;2.88;;;15.10;99.90;;;;;;5042606;28;20072;-66
2022/09/14 04:05:58;;;;;;;12.32;2.75;;;15.10;99.90;;;;;;5045802;28;20064;-67
2022/09/14 04:08:24;;;;;;;11.95;2.80;;;15.10;99.90;;;;;;5061024;28;20498;-64
2022/09/14 04:10:53;;;;;;;8.40;2.70;;;15.10;99.90;;;;;;5064037;28;20415;-66
2022/09/14 04:13:19;;;;;;;7.38;2.88;;;15.10;99.90;;;;;;5065311;28;20101;-66
2022/09/14 04:16:00;;;;;;;8.93;2.70;;;15.10;99.90;;;;;;5062090;28;20044;-66
2022/09/14 04:18:26;;;;;;;;;;;15.10;99.90;;;;;;5043978;28;20087;-66
2022/09/14 04:21:08;;;;;;;9.60;3.25;;;15.10;99.90;;;;;;5058080;28;19920;-65
2022/09/14 04:23:36;;;;;;;7.38;2.75;;;15.10;99.90;;;;;;5059307;28;20195;-65
2022/09/14 04:26:11;;;;;;;7.13;3.47;;;15.10;99.90;;;;;;5060450;28;20076;-66
2022/09/14 04:28:36;;;;;;;3.80;2.58;;;15.10;99.90;;;;;;5068660;28;20048;-68
2022/09/14 04:31:02;;;;;;;10.52;2.35;;;15.20;99.90;;;;;;5060371;28;20051;-65
2022/09/14 04:33:33;;;;;;;5.75;3.03;;;15.20;99.90;;;;;;5061003;28;20113;-66
2022/09/14 04:36:05;;;;;;;14.60;3.38;;;15.20;99.90;;;;;;5043874;28;20049;-66
2022/09/14 04:38:36;;;;;;;7.60;2.50;;;15.20;99.90;;;;;;5067189;28;20483;-65
2022/09/14 04:41:07;;;;;;;6.18;2.63;;;15.20;99.90;;;;;;5039066;28;20051;-65
2022/09/14 04:43:34;;;;;;;9.02;2.58;;;15.20;99.90;;;;;;5053534;28;20048;-67
2022/09/14 04:46:11;;;;;;;8.93;2.45;;;15.20;99.90;;;;;;5046268;28;20047;-66
2022/09/14 04:48:37;;;;;;;7.82;2.30;;;15.20;99.90;;;;;;5060312;28;21745;-65
2022/09/14 04:51:17;;;;;;;6.47;2.40;;;15.30;99.90;;;;;;5069296;28;20036;-64
2022/09/14 04:53:45;;;;;;;7.13;2.30;;;15.20;99.90;;;;;;5021685;28;20053;-65
2022/09/14 04:56:12;;;;;;;8.32;3.03;;;15.20;99.90;;;;;;5064820;28;20045;-65
2022/09/14 04:58:41;;;;;;;8.77;2.72;;;15.20;99.90;;;;;;5047469;28;20174;-65
2022/09/14 05:01:10;;;;;;;6.57;2.75;;;15.20;99.90;;;;;;5064350;28;20097;-65
2022/09/14 05:03:40;;;;;;;7.65;2.97;;;15.20;99.90;;;;;;5065064;28;20403;-65
2022/09/14 05:06:13;;;;;;;8.00;2.70;;;15.20;99.90;;;;;;5043243;28;20036;-66
2022/09/14 05:08:40;;;;;;;7.57;2.70;;;15.20;99.90;;;;;;5065496;28;20071;-64
2022/09/14 05:11:14;;;;;;;8.00;2.67;;;15.20;99.90;;;;;;5044909;28;20049;-65
2022/09/14 05:13:40;;;;;;;8.30;2.40;;;15.30;99.90;;;;;;5046135;28;20054;-64
2022/09/14 05:16:14;;;;;;;7.05;2.45;;;15.20;99.90;;;;;;5061456;28;20043;-65
2022/09/14 05:18:39;;;;;;;7.15;2.55;;;15.20;99.90;;;;;;5064950;28;20071;-65
2022/09/14 05:21:07;;;;;;;7.53;2.28;;;15.30;99.90;;;;;;5061027;28;20126;-65
2022/09/14 05:23:33;;;;;;;7.40;2.90;;;15.30;99.90;;;;;;5061014;28;20037;-66
2022/09/14 05:26:00;;;;;;;7.53;2.63;;;15.20;99.90;;;;;;5044412;28;20059;-65
2022/09/14 05:28:26;;;;;;;6.78;2.50;;;15.10;99.90;;;;;;5045596;28;20045;-67
2022/09/14 05:30:52;;;;;;;5.32;2.63;;;15.20;99.90;;;;;;5044566;28;20047;-66
2022/09/14 05:33:19;;;;;;;6.55;2.53;;;15.20;99.90;;;;;;5060761;28;20028;-65
2022/09/14 05:35:45;;;;;;;6.93;3.08;;;15.20;99.90;;;;;;5062962;28;20037;-66
2022/09/14 05:38:11;;;;;;;10.02;2.70;;;15.30;99.90;;;;;;5060948;28;20058;-65
2022/09/14 05:40:37;;;;;;;7.07;2.47;;;15.20;99.90;;;;;;5059748;28;20045;-65
2022/09/14 05:43:03;;;;;;;5.03;2.25;;;15.20;99.90;;;;;;5044895;28;20067;-66
2022/09/14 05:45:28;;;;;;;9.70;2.67;;;15.30;99.90;;;;;;5057328;28;20033;-65
2022/09/14 05:47:54;;;;;;;8.27;2.75;;;15.30;99.90;;;;;;5043641;28;20037;-65
2022/09/14 05:50:20;;;;;;;10.25;2.45;;;15.30;99.90;;;;;;5047537;28;20041;-66
2022/09/14 05:52:47;;;;;;;5.45;2.05;;;15.30;99.90;;;;;;5041865;28;20509;-65
2022/09/14 05:55:13;;;;;;;7.32;2.63;;;15.30;99.90;;;;;;5034347;28;20067;-65
2022/09/14 05:57:39;;;;;;;6.35;2.05;;;15.30;99.90;;;;;;5059633;28;20482;-65
2022/09/14 06:00:05;;;;;;;6.22;2.20;;;15.40;99.90;;;;;;5045490;28;20041;-65
2022/09/14 06:02:32;;;;;;;7.85;2.10;;;15.40;99.90;;;;;;5066664;28;20402;-64
2022/09/14 06:04:58;;;;;;;5.07;2.13;;;15.40;99.90;;;;;;5050149;28;20522;-65
2022/09/14 06:07:23;;;;;;;9.02;2.45;;;15.40;99.90;;;;;;5048940;28;20040;-64
2022/09/14 06:09:49;;;;;;;9.52;1.95;;;15.40;99.90;;;;;;5066846;28;20049;-65
2022/09/14 06:12:15;;;;;;;7.45;1.70;;;15.40;99.90;;;;;;5068965;28;20040;-64
2022/09/14 06:14:40;;;;;;;6.82;2.20;;;15.50;99.90;;;;;;5053209;28;20028;-63
2022/09/14 06:17:06;;;;;;;6.93;1.80;;;15.50;99.90;;;;;;5048541;28;20041;-66
2022/09/14 06:19:31;;;;;;;10.10;2.25;;;15.60;99.90;;;;;;5060610;28;20538;-65
2022/09/14 06:21:57;;;;;;;4.75;1.60;;;15.60;99.90;;;;;;5068145;28;20039;-65
2022/09/14 06:24:23;;;;;;;8.20;2.05;;;15.60;99.90;;;;;;5070419;28;20545;-66
2022/09/14 06:26:48;;;;;;;11.82;2.13;;;15.70;99.90;;;;;;5042593;28;20049;-65
2022/09/14 06:29:14;;;;;;;10.38;2.33;;;15.70;99.90;;;;;;5067467;28;20419;-65
2022/09/14 06:31:40;;;;;;;8.65;2.20;;;15.70;99.90;;;;;;5069560;28;20505;-65
2022/09/14 06:34:05;;;;;;;5.97;2.03;;;15.70;99.90;;;;;;5060781;28;20047;-64
2022/09/14 06:36:31;;;;;;;7.60;1.88;;;15.80;99.90;;;;;;5065300;28;20090;-64
2022/09/14 06:38:59;;;;;;;9.57;2.08;;;15.80;99.90;;;;;;5048599;28;20076;-64
2022/09/14 06:41:29;;;;;;;7.82;2.10;;;15.90;99.90;;;;;;5073525;28;20498;-64
2022/09/14 06:43:56;;;;;;;6.80;2.00;;;15.80;99.90;;;;;;5072330;28;20048;-66
2022/09/14 06:46:26;;;;;;;7.68;1.77;;;15.90;99.90;;;;;;5052384;28;20053;-65
2022/09/14 06:48:58;;;;;;;6.75;2.20;;;15.90;99.90;;;;;;5068675;28;20093;-65
2022/09/14 06:51:29;;;;;;;9.15;1.90;;;15.90;99.90;;;;;;5053998;28;20174;-65
2022/09/14 06:53:58;;;;;;;11.52;2.10;;;15.90;99.90;;;;;;5062284;28;20526;-66
2022/09/14 06:56:25;;;;;;;6.03;2.08;;;16.00;99.90;;;;;;5069534;28;20048;-67
2022/09/14 06:58:52;;;;;;;6.82;2.08;;;16.00;99.90;;;;;;5065281;28;20384;-65
2022/09/14 07:01:20;;;;;;;4.78;1.65;;;16.10;99.90;;;;;;5066782;28;20375;-64
2022/09/14 07:03:46;;;;;;;12.60;2.00;;;16.10;99.90;;;;;;5068418;28;20064;-66
2022/09/14 07:06:16;;;;;;;4.32;1.58;;;16.10;99.90;;;;;;5070471;28;20084;-65
2022/09/14 07:08:42;;;;;;;14.68;2.30;;;16.30;99.90;;;;;;5067069;28;20037;-65
2022/09/14 07:11:13;;;;;;;7.72;1.90;;;16.30;99.90;;;;;;5072394;28;20490;-65
2022/09/14 07:13:39;;;;;;;8.43;2.00;;;16.40;99.90;;;;;;5071873;28;20105;-64
2022/09/14 07:16:06;;;;;;;6.60;1.80;;;16.30;99.90;;;;;;5064706;28;20093;-65
2022/09/14 07:18:32;;;;;;;11.43;2.53;;;16.40;99.90;;;;;;5053746;28;20052;-64
2022/09/14 07:21:10;;;;;;;9.13;1.95;;;16.40;99.90;;;;;;5035896;28;20040;-65
2022/09/14 07:23:38;;;;;;;9.80;1.90;;;16.50;99.90;;;;;;5072965;28;20445;-65
2022/09/14 07:26:07;;;;;;;9.40;2.10;;;16.50;99.90;;;;;;5066982;28;20049;-66
2022/09/14 07:28:33;;;;;;;7.50;2.22;;;16.50;99.90;;;;;;5065983;28;20052;-67
2022/09/14 07:31:03;;;;;;;11.57;2.08;;;16.60;99.90;;;;;;5065992;28;20116;-65
2022/09/14 07:33:29;;;;;;;9.23;2.22;;;16.70;99.90;;;;;;5047887;28;20041;-66
2022/09/14 07:36:04;;;;;;;8.13;1.92;;;16.70;99.90;;;;;;5029563;28;20044;-65
2022/09/14 07:38:30;;;;;;;11.27;1.80;;;16.70;99.90;;;;;;5035524;28;20044;-65
2022/09/14 07:40:59;;;;;;;8.65;2.30;;;16.80;99.90;;;;;;5058288;28;20436;-65
2022/09/14 07:43:25;;;;;;;10.43;2.22;;;16.80;99.90;;;;;;5044249;28;20059;-65
2022/09/14 07:45:51;;;;;;;8.77;1.90;;;16.90;99.90;;;;;;5045747;28;20036;-67
2022/09/14 07:48:17;;;;;;;8.00;1.73;;;16.90;99.90;;;;;;5052855;28;20043;-65
2022/09/14 07:50:42;;;;;;;12.18;2.30;;;16.90;99.90;;;;;;5056452;28;20047;-65
2022/09/14 07:53:09;;;;;;;9.30;2.13;;;17.00;99.90;;;;;;5032994;28;20044;-65
2022/09/14 07:55:38;;;;;;;9.23;2.13;;;17.00;99.90;;;;;;5059856;28;20041;-66
2022/09/14 07:58:06;;;;;;;5.80;1.90;;;17.00;99.90;;;;;;5069339;28;20103;-65
2022/09/14 08:05:43;;;;;;;9.38;1.92;;;17.10;99.90;;;;;;5188407;22;20065;-72
2022/09/14 08:08:08;;;;;;;8.30;1.70;;;17.20;99.90;;;;;;5070579;28;20414;-70
2022/09/14 08:10:34;;;;;;;9.63;1.92;;;17.20;99.90;;;;;;5065179;28;20417;-72
2022/09/14 08:13:00;;;;;;;12.43;1.90;;;17.40;99.90;;;;;;5061223;28;20473;-71
2022/09/14 08:15:27;;;;;;;12.07;2.22;;;17.50;99.90;;;;;;5067668;28;20076;-72
2022/09/14 08:17:53;;;;;;;14.15;2.78;;;17.50;99.90;;;;;;5067262;28;20425;-71
2022/09/14 08:20:18;;;;;;;14.60;2.35;;;17.60;99.90;;;;;;5044204;28;20039;-71
2022/09/14 08:22:44;;;;;;;6.70;2.00;;;17.60;99.90;;;;;;5070545;28;20043;-73
2022/09/14 08:25:11;;;;;;;10.20;1.92;;;17.70;99.90;;;;;;5067335;28;20102;-72
2022/09/14 08:27:37;;;;;;;7.00;1.80;;;17.70;99.90;;;;;;5060214;28;20079;-71
2022/09/14 08:30:03;;;;;;;8.75;1.88;;;17.70;99.90;;;;;;5071203;28;20040;-71
2022/09/14 08:32:29;;;;;;;13.43;1.75;;;17.80;99.90;;;;;;5066839;28;20048;-71
2022/09/14 08:34:54;;;;;;;8.38;2.00;;;17.90;99.90;;;;;;5064763;28;20483;-71
2022/09/14 08:37:20;;;;;;;10.15;1.95;;;18.00;99.90;;;;;;5071233;28;20040;-72
2022/09/14 08:39:46;;;;;;;8.07;2.22;;;18.10;99.90;;;;;;5069049;28;20072;-71
2022/09/14 08:42:18;;;;;;;7.10;1.75;;;18.20;99.90;;;;;;5067632;28;20040;-70
2022/09/14 08:44:55;;;;;;;10.80;1.70;;;18.50;99.90;;;;;;5050833;28;20198;-71
2022/09/14 08:47:33;;;;;;;10.40;1.98;;;18.60;99.90;;;;;;5049214;28;20049;-72
2022/09/14 08:50:13;;;;;;;9.80;1.80;;;18.70;99.90;;;;;;5065332;28;20506;-71
2022/09/14 08:52:42;;;;;;;9.35;1.83;;;18.80;99.90;;;;;;5043854;28;20055;-72
2022/09/14 08:55:33;;;;;;;10.57;1.73;;;18.80;99.90;;;;;;5046149;28;20059;-72
2022/09/14 08:57:59;;;;;;;9.43;1.70;;;18.90;99.90;;;;;;5055852;28;20120;-71
2022/09/14 09:00:36;;;;;;;10.57;1.80;;;18.90;99.90;;;;;;5054570;28;20471;-71
2022/09/14 09:03:17;;;;;;;6.32;1.67;;;18.90;99.90;;;;;;5043654;28;20048;-71
2022/09/14 09:06:20;;;;;;;7.28;1.55;;;19.30;99.90;;;;;;5056948;28;20075;-71
2022/09/14 09:09:35;;;;;;;7.18;1.42;;;19.70;99.90;;;;;;5036398;28;20443;-70
2022/09/14 09:12:01;;;;;;;10.90;1.83;;;19.90;99.90;;;;;;5044814;28;20124;-70
2022/09/14 09:14:30;;;;;;;6.00;1.70;;;20.00;99.90;;;;;;5043301;28;20144;-71
2022/09/14 09:16:59;;;;;;;11.15;2.42;;;20.00;99.90;;;;;;5045038;28;20115;-71
2022/09/14 09:19:44;;;;;;;7.50;1.73;;;19.80;99.90;;;;;;5033173;28;20041;-73
2022/09/14 09:22:14;;;;;;;10.10;1.88;;;19.70;99.90;;;;;;5033752;28;20096;-71
2022/09/14 09:24:46;;;;;;;6.72;1.50;;;19.50;99.90;;;;;;5031609;28;20395;-70
2022/09/14 09:27:14;;;;;;;16.05;2.28;;;19.40;99.50;;;;;;5047835;28;20487;-71
2022/09/14 09:29:39;;;;;;;7.13;1.45;;;19.20;99.90;;;;;;5051866;28;20048;-70
2022/09/14 09:32:11;;;;;;;7.53;2.00;;;19.00;99.90;;;;;;5044558;28;20046;-71
2022/09/14 09:34:37;;;;;;;7.72;1.77;;;18.90;99.90;;;;;;5049047;28;20802;-71
2022/09/14 09:37:03;;;;;;;11.98;2.00;;;18.90;99.90;;;;;;5055240;28;20121;-71
2022/09/14 09:39:30;;;;;;;10.88;1.33;;;18.90;99.90;;;;;;5053278;28;20045;-70
2022/09/14 09:42:00;;;;;;;8.73;1.85;;;19.00;99.90;;;;;;5047700;28;20037;-71
2022/09/14 09:44:26;;;;;;;9.10;2.38;;;18.90;99.90;;;;;;5035733;28;20049;-71
2022/09/14 09:46:58;;;;;;;9.35;1.85;;;18.80;99.90;;;;;;5037770;28;20064;-70
2022/09/14 09:49:38;;;;;;;6.30;1.77;;;18.90;99.90;;;;;;5045329;28;20148;-71
2022/09/14 09:52:11;;;;;;;12.15;1.83;;;18.80;99.90;;;;;;5049496;28;20037;-71
2022/09/14 09:54:39;;;;;;;5.38;1.60;;;18.70;99.90;;;;;;5043737;28;20056;-72
2022/09/14 09:57:19;;;;;;;9.52;2.00;;;18.70;99.90;;;;;;5054696;28;20123;-70
2022/09/14 09:59:47;;;;;;;12.52;3.30;;;18.70;99.90;;;;;;5052487;28;20052;-71
2022/09/14 10:02:19;;;;;;;8.77;1.80;;;18.80;99.90;;;;;;5047309;28;20052;-71
2022/09/14 10:05:08;;;;;;;11.82;1.95;;;18.90;99.90;;;;;;5049874;28;20075;-72
2022/09/14 10:07:49;;;;;;;8.23;1.67;;;18.90;99.90;;;;;;5042333;28;20092;-70
2022/09/14 10:10:18;;;;;;;8.98;1.60;;;19.00;99.90;;;;;;5030172;28;20067;-70
2022/09/14 10:12:50;;;;;;;8.88;1.65;;;19.00;99.90;;;;;;5033573;28;20052;-70
2022/09/14 10:15:21;;;;;;;15.40;2.15;;;19.10;99.60;;;;;;5034025;28;20107;-72
2022/09/14 10:17:56;;;;;;;8.48;2.70;;;19.20;99.80;;;;;;5047156;28;20038;-71
2022/09/14 10:20:23;;;;;;;6.85;1.52;;;19.40;99.70;;;;;;5051531;28;20499;-72
2022/09/14 10:22:50;;;;;;;8.30;1.70;;;19.50;99.40;;;;;;5035850;28;20105;-69
2022/09/14 10:25:16;;;;;;;6.72;1.67;;;19.60;99.10;;;;;;5056563;28;20033;-69
2022/09/14 10:27:55;;;;;;;9.50;2.15;;;19.50;98.90;;;;;;5061263;28;20518;-72
2022/09/14 10:30:33;;;;;;;12.75;2.10;;;19.50;99.10;;;;;;5054591;28;20530;-71
2022/09/14 10:33:04;;;;;;;9.35;2.15;;;19.60;98.80;;;;;;5043058;28;20040;-71
2022/09/14 10:35:42;;;;;;;10.13;1.65;;;19.60;98.10;;;;;;5049037;28;20079;-69
2022/09/14 10:38:23;;;;;;;3.55;1.20;;;19.50;98.00;;;;;;5052281;28;20433;-69
2022/09/14 10:41:10;;;;;;;5.25;1.48;;;19.50;98.60;;;;;;5038653;28;20060;-69
2022/09/14 10:44:09;;;;;;;5.25;1.23;;;19.60;98.00;;;;;;5051705;28;20052;-71
2022/09/14 10:46:44;;;;;;;8.18;1.65;;;19.60;99.20;;;;;;5052098;28;20048;-71
2022/09/14 10:49:24;;;;;;;8.80;1.83;;;19.70;98.90;;;;;;5045640;28;20033;-70
2022/09/14 10:52:03;;;;;;;6.30;1.38;;;19.80;99.30;;;;;;5051813;28;20045;-70
2022/09/14 10:54:57;;;;;;;5.63;1.42;;;20.00;98.10;;;;;;5033141;28;20084;-71
2022/09/14 10:57:44;;;;;;;8.85;1.92;;;20.00;98.10;;;;;;5033169;28;20368;-68
2022/09/14 11:00:17;;;;;;;5.75;1.50;;;20.20;96.60;;;;;;5054387;28;20052;-70
2022/09/14 11:03:20;;;;;;;8.80;1.40;;;20.10;96.10;;;;;;5048207;28;20441;-70
2022/09/14 11:06:01;;;;;;;10.80;1.55;;;20.10;97.20;;;;;;5043986;28;20404;-70
2022/09/14 11:08:32;;;;;;;10.88;1.55;;;20.20;96.40;;;;;;5003120;28;20419;-69
2022/09/14 11:11:12;;;;;;;8.25;1.70;;;20.30;97.10;;;;;;5044145;28;20120;-69
2022/09/14 11:13:50;;;;;;;5.00;1.55;;;20.40;95.50;;;;;;5045811;28;20483;-69
2022/09/14 11:16:49;;;;;;;11.20;2.30;;;20.40;96.50;;;;;;5024712;28;20076;-72
2022/09/14 11:19:37;;;;;;;10.90;1.60;;;20.40;95.80;;;;;;5013136;28;20045;-71
2022/09/14 11:22:08;;;;;;;8.35;1.60;;;20.40;95.70;;;;;;5044256;28;20048;-72
2022/09/14 11:24:53;;;;;;;7.30;1.73;;;20.50;96.00;;;;;;5045947;28;20045;-70
2022/09/14 11:28:04;;;;;;;5.43;1.30;;;20.70;95.30;;;;;;5054824;28;20302;-72
2022/09/14 11:30:40;;;;;;;5.05;1.35;;;21.00;95.70;;;;;;5059490;28;20101;-70
2022/09/14 11:33:49;;;;;;;6.93;1.55;;;21.30;94.70;;;;;;5045199;28;20052;-69
2022/09/14 11:36:23;;;;;;;7.20;1.40;;;21.20;94.30;;;;;;5003279;28;20415;-71
2022/09/14 11:39:00;;;;;;;7.70;1.50;;;21.10;94.60;;;;;;5030255;28;20053;-71
2022/09/14 11:41:32;;;;;;;5.57;1.40;;;21.00;94.20;;;;;;5036328;28;20576;-70
2022/09/14 11:44:10;;;;;;;13.40;2.28;;;20.90;93.60;;;;;;5044299;28;20048;-69
2022/09/14 11:46:41;;;;;;;;;;;20.90;94.60;;;;;;5046981;28;20037;-69
2022/09/14 11:49:29;;;;;;;5.82;2.28;;;20.80;94.00;;;;;;5045749;28;19921;-69
2022/09/14 11:52:03;;;;;;;9.75;1.52;;;20.80;93.50;;;;;;5049971;28;20391;-69
2022/09/14 11:54:30;;;;;;;8.00;1.63;;;20.90;93.60;;;;;;5026475;28;20053;-70
2022/09/14 11:56:59;;;;;;;10.23;1.90;;;20.80;93.40;;;;;;5031621;28;20124;-71
2022/09/14 11:59:40;;;;;;;5.13;1.50;;;20.80;94.00;;;;;;5042481;28;20041;-71
2022/09/14 12:02:21;;;;;;;7.88;1.60;;;20.70;93.70;;;;;;5019716;28;20044;-72
2022/09/14 12:05:09;;;;;;;9.48;1.55;;;20.80;94.70;;;;;;5041488;28;20033;-69
2022/09/14 12:10:14;;;;;;;6.10;2.30;;;20.80;94.00;;;;;;5049280;28;20064;-69
2022/09/14 12:12:46;;;;;;;7.60;1.50;;;20.70;94.30;;;;;;5047067;28;20033;-70
2022/09/14 12:15:17;;;;;;;7.40;2.17;;;20.70;94.30;;;;;;5038022;28;20041;-69
2022/09/14 12:17:44;;;;;;;6.88;1.65;;;20.70;94.00;;;;;;5045614;28;20053;-70
2022/09/14 12:20:31;;;;;;;9.93;1.80;;;20.70;93.50;;;;;;5036274;28;20514;-71
2022/09/14 12:23:38;;;;;;;6.78;1.35;;;20.70;94.50;;;;;;5037948;28;20098;-71
2022/09/14 12:26:04;;;;;;;5.18;1.40;;;20.90;92.70;;;;;;4966873;28;20054;-72
2022/09/14 12:28:38;;;;;;;12.30;2.20;;;20.90;93.70;;;;;;5026648;28;20112;-70
2022/09/14 12:31:04;;;;;;;12.93;2.08;;;21.10;93.60;;;;;;5043061;28;20037;-72
2022/09/14 12:33:33;;;;;;;6.07;1.50;;;21.30;92.60;;;;;;5042110;28;20049;-71
2022/09/14 12:36:20;;;;;;;4.93;1.42;;;21.30;93.20;;;;;;5040265;28;20041;-71
2022/09/14 12:38:49;;;;;;;5.07;1.50;;;21.40;93.30;;;;;;5052060;28;20043;-72
2022/09/14 12:41:14;;;;;;;8.60;1.65;;;21.50;92.50;;;;;;5063284;28;20033;-72
2022/09/14 12:43:40;;;;;;;8.57;1.67;;;21.50;91.80;;;;;;5037831;28;20454;-71
2022/09/14 12:46:20;;;;;;;6.75;1.60;;;21.40;92.20;;;;;;5036194;28;20041;-73
2022/09/14 12:48:46;;;;;;;6.43;1.70;;;21.20;92.50;;;;;;5044413;28;20037;-71
2022/09/14 12:51:33;;;;;;;5.85;1.50;;;21.10;92.90;;;;;;5034010;28;20045;-70
2022/09/14 12:54:15;;;;;;;9.48;1.40;;;21.20;91.90;;;;;;5038394;28;20061;-70
2022/09/14 12:56:59;;;;;;;9.90;1.60;;;21.10;92.20;;;;;;5019907;28;20050;-71
2022/09/14 12:59:52;;;;;;;7.80;1.13;;;21.00;92.20;;;;;;5041589;28;20037;-72
2022/09/14 13:02:53;;;;;;;13.82;2.17;;;20.90;92.20;;;;;;5037337;28;20060;-72
2022/09/14 13:05:23;;;;;;;7.97;1.48;;;20.60;92.50;;;;;;5043190;28;20048;-73
2022/09/14 13:07:49;;;;;;;5.65;1.35;;;20.20;93.40;;;;;;5045984;28;20445;-70
2022/09/14 13:10:34;;;;;;;7.55;1.65;;;20.10;93.40;;;;;;5046159;28;20045;-71
2022/09/14 13:13:04;;;;;;;7.72;2.35;;;19.90;94.10;;;;;;5050087;28;20120;-72
2022/09/14 13:15:36;;;;;;;5.28;1.65;;;19.80;94.00;;;;;;5040524;28;20099;-70
2022/09/14 13:18:06;;;;;;;6.60;1.60;;;19.70;94.10;;;;;;5040717;28;20036;-70
2022/09/14 13:20:34;;;;;;;9.10;1.83;;;19.70;94.50;;;;;;5019261;28;20067;-72